createdAt,value
2019-02-09T00:00:53.904Z,6.91
2019-02-09T00:03:21.655Z,6.86
2019-02-09T00:05:49.421Z,6.82
2019-02-09T00:08:17.206Z,6.79
2019-02-09T00:10:45.022Z,6.85
2019-02-09T00:13:12.783Z,6.82
2019-02-09T00:15:40.786Z,6.72
2019-02-09T00:18:08.554Z,6.76
2019-02-09T00:20:36.315Z,6.83
2019-02-09T00:23:04.854Z,6.65
2019-02-09T00:25:32.667Z,6.66
2019-02-09T00:28:00.468Z,6.64
2019-02-09T00:30:28.208Z,6.68
2019-02-09T00:32:56.018Z,6.68
2019-02-09T00:35:23.791Z,6.70
2019-02-09T00:37:51.571Z,6.67
2019-02-09T00:40:19.536Z,6.76
2019-02-09T00:42:47.345Z,6.77
2019-02-09T00:45:15.679Z,6.86
2019-02-09T00:47:43.464Z,6.87
2019-02-09T00:50:12.338Z,6.98
2019-02-09T00:52:40.120Z,6.89
2019-02-09T00:55:08.996Z,6.95
2019-02-09T00:57:36.758Z,6.99
2019-02-09T01:00:15.435Z,6.95
2019-02-09T01:02:43.194Z,7.09
2019-02-09T01:05:12.552Z,7.20
2019-02-09T01:07:40.297Z,7.21
2019-02-09T01:10:10.798Z,7.24
2019-02-09T01:12:38.573Z,7.33
2019-02-09T01:15:09.653Z,7.35
2019-02-09T01:17:37.436Z,7.39
2019-02-09T01:20:08.388Z,7.35
2019-02-09T01:22:36.188Z,7.42
2019-02-09T01:25:05.237Z,7.37
2019-02-09T01:27:33.066Z,7.40
2019-02-09T01:30:02.510Z,7.46
2019-02-09T01:32:30.476Z,7.43
2019-02-09T01:34:58.202Z,7.45
2019-02-09T01:37:25.993Z,7.43
2019-02-09T01:39:53.757Z,7.34
2019-02-09T01:42:21.649Z,7.40
2019-02-09T01:44:49.409Z,7.35
2019-02-09T01:47:17.205Z,7.35
2019-02-09T01:49:44.941Z,7.42
2019-02-09T01:52:12.735Z,7.52
2019-02-09T01:54:40.534Z,7.56
2019-02-09T01:57:08.280Z,7.49
2019-02-09T01:59:36.027Z,7.42
2019-02-09T02:02:04.248Z,7.36
2019-02-09T02:04:32.157Z,7.46
2019-02-09T02:06:59.985Z,7.38
2019-02-09T02:09:27.769Z,7.37
2019-02-09T02:11:55.521Z,7.24
2019-02-09T02:14:23.300Z,7.17
2019-02-09T02:16:51.053Z,7.14
2019-02-09T02:19:18.848Z,7.07
2019-02-09T02:21:46.605Z,7.11
2019-02-09T02:24:14.360Z,7.14
2019-02-09T02:26:42.133Z,7.07
2019-02-09T02:29:09.898Z,7.04
2019-02-09T02:31:37.660Z,6.99
2019-02-09T02:34:05.398Z,7.02
2019-02-09T02:36:33.164Z,6.99
2019-02-09T02:39:00.887Z,6.90
2019-02-09T02:41:28.694Z,6.85
2019-02-09T02:43:56.478Z,6.88
2019-02-09T02:46:24.234Z,6.95
2019-02-09T02:48:52.008Z,6.92
2019-02-09T02:51:20.023Z,6.88
2019-02-09T02:53:47.766Z,6.83
2019-02-09T02:56:15.512Z,6.86
2019-02-09T02:58:43.268Z,6.89
2019-02-09T03:01:11.036Z,6.92
2019-02-09T03:03:38.775Z,6.84
2019-02-09T03:06:06.810Z,6.88
2019-02-09T03:08:34.546Z,6.88
2019-02-09T03:11:02.292Z,6.92
2019-02-09T03:13:30.064Z,6.92
2019-02-09T03:15:57.817Z,6.97
2019-02-09T03:18:25.574Z,7.01
2019-02-09T03:20:53.344Z,7.06
2019-02-09T03:23:21.194Z,7.05
2019-02-09T03:25:49.236Z,7.06
2019-02-09T03:28:16.967Z,7.10
2019-02-09T03:30:48.308Z,7.09
2019-02-09T03:33:14.360Z,7.06
2019-02-09T03:35:42.095Z,7.17
2019-02-09T03:38:09.854Z,7.11
2019-02-09T03:40:37.603Z,7.12
2019-02-09T03:43:05.341Z,7.13
2019-02-09T03:45:33.310Z,7.12
2019-02-09T03:48:01.594Z,7.16
2019-02-09T03:50:30.562Z,7.14
2019-02-09T03:52:58.904Z,7.11
2019-02-09T03:55:26.847Z,7.12
2019-02-09T03:57:54.717Z,7.04
2019-02-09T04:00:25.056Z,7.06
2019-02-09T04:02:53.107Z,7.04
2019-02-09T04:05:21.041Z,7.12
2019-02-09T04:07:48.921Z,7.03
2019-02-09T04:10:19.141Z,7.20
2019-02-09T04:12:46.901Z,7.03
2019-02-09T04:15:17.609Z,7.05
2019-02-09T04:17:45.501Z,7.11
2019-02-09T04:20:14.731Z,7.19
2019-02-09T04:22:42.644Z,7.13
2019-02-09T04:25:12.433Z,7.14
2019-02-09T04:27:40.221Z,7.14
2019-02-09T04:30:22.758Z,7.23
2019-02-09T04:32:50.543Z,7.10
2019-02-09T04:35:18.290Z,7.11
2019-02-09T04:37:46.031Z,7.18
2019-02-09T04:40:17.464Z,7.12
2019-02-09T04:42:45.229Z,7.06
2019-02-09T04:45:13.942Z,7.13
2019-02-09T04:47:41.716Z,7.06
2019-02-09T04:50:09.911Z,7.17
2019-02-09T04:52:37.676Z,7.26
2019-02-09T04:55:08.290Z,7.39
2019-02-09T04:57:36.054Z,7.28
2019-02-09T05:00:05.443Z,7.52
2019-02-09T05:02:33.178Z,7.54
2019-02-09T05:05:00.969Z,7.56
2019-02-09T05:07:28.763Z,7.66
2019-02-09T05:09:56.548Z,7.55
2019-02-09T05:12:24.317Z,7.68
2019-02-09T05:14:52.083Z,7.66
2019-02-09T05:17:20.024Z,7.73
2019-02-09T05:19:50.338Z,7.91
2019-02-09T05:22:18.092Z,7.82
2019-02-09T05:24:45.876Z,7.79
2019-02-09T05:27:13.785Z,7.86
2019-02-09T05:29:41.617Z,7.83
2019-02-09T05:32:09.407Z,7.81
2019-02-09T05:34:37.170Z,7.87
2019-02-09T05:37:04.929Z,7.94
2019-02-09T05:39:33.834Z,7.89
2019-02-09T05:42:01.800Z,8.05
2019-02-09T05:44:29.815Z,7.96
2019-02-09T05:46:57.625Z,8.02
2019-02-09T05:49:25.403Z,7.88
2019-02-09T05:51:53.143Z,8.09
2019-02-09T05:54:20.888Z,8.11
2019-02-09T05:56:48.681Z,8.01
2019-02-09T05:59:16.432Z,8.06
2019-02-09T06:01:44.207Z,7.95
2019-02-09T06:04:11.965Z,7.94
2019-02-09T06:06:39.730Z,7.94
2019-02-09T06:09:07.757Z,7.85
2019-02-09T06:11:35.678Z,7.72
2019-02-09T06:14:04.115Z,7.71
2019-02-09T06:16:31.880Z,7.74
2019-02-09T06:18:59.992Z,7.77
2019-02-09T06:21:30.115Z,7.80
2019-02-09T06:23:57.872Z,7.74
2019-02-09T06:26:25.639Z,7.73
2019-02-09T06:28:53.471Z,7.81
2019-02-09T06:31:21.269Z,7.79
2019-02-09T06:33:49.124Z,7.80
2019-02-09T06:36:16.870Z,7.78
2019-02-09T06:38:44.636Z,7.75
2019-02-09T06:41:12.395Z,7.86
2019-02-09T06:43:40.184Z,7.84
2019-02-09T06:46:07.959Z,7.85
2019-02-09T06:48:35.834Z,7.76
2019-02-09T06:51:04.374Z,7.77
2019-02-09T06:53:32.166Z,7.90
2019-02-09T06:56:00.208Z,7.90
2019-02-09T06:58:27.998Z,7.80
2019-02-09T07:00:55.762Z,7.89
2019-02-09T07:03:23.549Z,7.94
2019-02-09T07:05:51.292Z,7.82
2019-02-09T07:08:19.066Z,7.82
2019-02-09T07:10:46.865Z,7.74
2019-02-09T07:13:14.620Z,7.71
2019-02-09T07:15:42.408Z,7.59
2019-02-09T07:18:10.203Z,7.57
2019-02-09T07:20:37.993Z,7.52
2019-02-09T07:23:06.112Z,7.46
2019-02-09T07:25:33.924Z,7.48
2019-02-09T07:28:01.798Z,7.52
2019-02-09T07:30:29.688Z,7.58
2019-02-09T07:32:58.220Z,7.79
2019-02-09T07:35:26.277Z,7.73
2019-02-09T07:37:54.135Z,7.82
2019-02-09T07:40:22.605Z,8.11
2019-02-09T07:42:50.431Z,8.25
2019-02-09T07:45:21.161Z,8.47
2019-02-09T07:47:48.946Z,8.50
2019-02-09T07:50:17.683Z,8.59
2019-02-09T07:52:45.476Z,8.55
2019-02-09T07:55:14.005Z,8.56
2019-02-09T07:57:41.843Z,8.50
2019-02-09T08:00:17.051Z,8.34
2019-02-09T08:02:44.941Z,8.17
2019-02-09T08:05:13.143Z,8.09
2019-02-09T08:07:40.947Z,7.89
2019-02-09T08:10:13.225Z,7.94
2019-02-09T08:12:41.183Z,7.92
2019-02-09T08:15:14.429Z,8.02
2019-02-09T08:17:42.255Z,8.04
2019-02-09T08:20:12.201Z,8.10
2019-02-09T08:22:40.020Z,8.29
2019-02-09T08:25:11.135Z,8.21
2019-02-09T08:27:38.939Z,8.31
2019-02-09T08:30:09.403Z,8.48
2019-02-09T08:32:37.226Z,8.42
2019-02-09T08:35:05.490Z,8.45
2019-02-09T08:37:33.363Z,8.62
2019-02-09T08:40:01.171Z,8.74
2019-02-09T08:42:28.998Z,8.82
2019-02-09T08:44:59.133Z,8.89
2019-02-09T08:47:26.953Z,8.94
2019-02-09T08:49:54.818Z,8.94
2019-02-09T08:52:22.632Z,9.03
2019-02-09T08:54:51.576Z,9.09
2019-02-09T08:57:19.366Z,9.03
2019-02-09T08:59:48.332Z,9.17
2019-02-09T09:02:20.663Z,9.27
2019-02-09T09:04:50.296Z,9.30
2019-02-09T09:07:18.304Z,9.40
2019-02-09T09:09:46.134Z,9.45
2019-02-09T09:12:14.014Z,9.60
2019-02-09T09:14:41.901Z,9.61
2019-02-09T09:17:09.766Z,9.70
2019-02-09T09:19:37.671Z,9.94
2019-02-09T09:22:05.504Z,10.18
2019-02-09T09:24:33.371Z,12.66
2019-02-09T09:27:01.304Z,14.72
2019-02-09T09:29:29.291Z,14.94
2019-02-09T09:31:57.166Z,15.16
2019-02-09T09:34:25.147Z,15.78
2019-02-09T09:36:53.103Z,17.26
2019-02-09T09:39:20.956Z,15.99
2019-02-09T09:41:48.730Z,14.30
2019-02-09T09:44:16.539Z,13.06
2019-02-09T09:46:44.453Z,12.20
2019-02-09T09:49:13.945Z,12.00
2019-02-09T09:51:41.933Z,11.90
2019-02-09T09:54:09.817Z,11.76
2019-02-09T09:56:37.797Z,11.57
2019-02-09T09:59:05.717Z,11.46
2019-02-09T10:01:33.550Z,11.37
2019-02-09T10:04:01.407Z,11.43
2019-02-09T10:06:29.399Z,11.51
2019-02-09T10:08:57.826Z,12.28
2019-02-09T10:11:25.646Z,14.80
2019-02-09T10:13:53.531Z,17.79
2019-02-09T10:16:21.275Z,19.63
2019-02-09T10:18:49.186Z,21.39
2019-02-09T10:21:17.093Z,21.25
2019-02-09T10:23:45.431Z,20.86
2019-02-09T10:26:13.321Z,18.75
2019-02-09T10:28:41.376Z,17.32
2019-02-09T10:31:09.213Z,16.56
2019-02-09T10:33:37.017Z,16.99
2019-02-09T10:36:04.830Z,18.22
2019-02-09T10:38:32.698Z,17.80
2019-02-09T10:41:00.388Z,16.52
2019-02-09T10:43:28.172Z,15.00
2019-02-09T10:45:55.945Z,14.01
2019-02-09T10:48:23.845Z,13.56
2019-02-09T10:50:51.663Z,13.36
2019-02-09T10:53:19.491Z,13.56
2019-02-09T10:55:47.228Z,13.90
2019-02-09T10:58:15.052Z,13.61
2019-02-09T11:00:57.046Z,13.52
2019-02-09T11:03:24.828Z,13.52
2019-02-09T11:05:52.656Z,13.10
2019-02-09T11:08:20.490Z,12.66
2019-02-09T11:10:48.363Z,12.59
2019-02-09T11:13:16.142Z,12.66
2019-02-09T11:15:44.030Z,12.63
2019-02-09T11:18:11.904Z,12.57
2019-02-09T11:20:39.676Z,12.43
2019-02-09T11:23:07.419Z,12.41
2019-02-09T11:25:35.325Z,12.38
2019-02-09T11:28:03.204Z,15.81
2019-02-09T11:30:31.250Z,17.89
2019-02-09T11:33:02.013Z,18.04
2019-02-09T11:35:29.775Z,18.87
2019-02-09T11:37:57.621Z,19.98
2019-02-09T11:40:25.431Z,19.95
2019-02-09T11:42:53.570Z,20.83
2019-02-09T11:45:24.493Z,19.07
2019-02-09T11:47:52.307Z,16.78
2019-02-09T11:50:20.820Z,15.53
2019-02-09T11:52:48.677Z,14.58
2019-02-09T11:55:17.165Z,13.85
2019-02-09T11:57:45.686Z,13.43
2019-02-09T12:00:22.535Z,13.09
2019-02-09T12:02:50.492Z,13.00
2019-02-09T12:05:18.357Z,13.46
2019-02-09T12:07:46.113Z,13.56
2019-02-09T12:10:14.437Z,13.24
2019-02-09T12:12:42.212Z,13.75
2019-02-09T12:15:15.095Z,15.56
2019-02-09T12:17:43.374Z,16.75
2019-02-09T12:20:13.570Z,19.65
2019-02-09T12:22:41.306Z,19.19
2019-02-09T12:25:14.507Z,17.39
2019-02-09T12:27:42.270Z,16.04
2019-02-09T12:30:17.012Z,15.35
2019-02-09T12:32:44.799Z,15.00
2019-02-09T12:35:13.368Z,14.64
2019-02-09T12:37:41.124Z,14.31
2019-02-09T12:40:15.818Z,14.15
2019-02-09T12:42:43.598Z,13.69
2019-02-09T12:45:13.496Z,13.45
2019-02-09T12:47:41.230Z,13.30
2019-02-09T12:50:10.911Z,12.99
2019-02-09T12:52:38.688Z,12.70
2019-02-09T12:55:06.701Z,12.69
2019-02-09T12:57:34.465Z,12.49
2019-02-09T13:00:03.345Z,12.39
2019-02-09T13:02:31.150Z,12.35
2019-02-09T13:04:58.956Z,12.31
2019-02-09T13:07:28.172Z,12.40
2019-02-09T13:09:55.997Z,12.78
2019-02-09T13:12:23.796Z,12.85
2019-02-09T13:14:51.584Z,12.83
2019-02-09T13:17:19.374Z,13.01
2019-02-09T13:19:47.187Z,13.18
2019-02-09T13:22:14.932Z,13.07
2019-02-09T13:24:42.734Z,13.19
2019-02-09T13:27:10.518Z,13.26
2019-02-09T13:29:38.339Z,13.06
2019-02-09T13:32:06.189Z,13.19
2019-02-09T13:34:34.001Z,13.34
2019-02-09T13:37:01.805Z,13.18
2019-02-09T13:39:29.601Z,12.85
2019-02-09T13:41:57.391Z,12.73
2019-02-09T13:44:25.477Z,12.62
2019-02-09T13:46:53.337Z,12.50
2019-02-09T13:49:21.171Z,12.34
2019-02-09T13:51:48.953Z,12.37
2019-02-09T13:54:16.733Z,12.50
2019-02-09T13:56:44.529Z,12.43
2019-02-09T13:59:12.369Z,12.76
2019-02-09T14:01:40.119Z,12.79
2019-02-09T14:04:07.891Z,12.90
2019-02-09T14:06:35.667Z,12.80
2019-02-09T14:09:06.678Z,12.73
2019-02-09T14:11:34.464Z,12.71
2019-02-09T14:14:02.339Z,12.48
2019-02-09T14:16:30.125Z,12.35
2019-02-09T14:18:57.945Z,12.45
2019-02-09T14:21:26.547Z,12.38
2019-02-09T14:23:54.367Z,12.19
2019-02-09T14:26:22.129Z,12.26
2019-02-09T14:28:49.926Z,12.50
2019-02-09T14:31:17.706Z,12.81
2019-02-09T14:33:45.448Z,13.03
2019-02-09T14:36:13.263Z,13.00
2019-02-09T14:38:41.053Z,12.85
2019-02-09T14:41:08.961Z,12.56
2019-02-09T14:43:36.795Z,12.32
2019-02-09T14:46:04.712Z,12.01
2019-02-09T14:48:32.522Z,12.12
2019-02-09T14:51:00.424Z,12.04
2019-02-09T14:53:30.407Z,12.08
2019-02-09T14:55:58.404Z,12.02
2019-02-09T14:58:26.343Z,11.97
2019-02-09T15:00:54.437Z,11.89
2019-02-09T15:03:27.220Z,11.73
2019-02-09T15:05:52.322Z,11.69
2019-02-09T15:08:20.155Z,11.66
2019-02-09T15:10:48.068Z,11.51
2019-02-09T15:13:16.715Z,11.60
2019-02-09T15:16:14.767Z,11.62
2019-02-09T15:18:42.552Z,11.88
2019-02-09T15:21:10.561Z,12.17
2019-02-09T15:23:39.217Z,12.15
2019-02-09T15:26:07.433Z,12.07
2019-02-09T15:28:35.238Z,12.25
2019-02-09T15:31:05.025Z,12.87
2019-02-09T15:33:33.000Z,12.94
2019-02-09T15:36:00.809Z,12.64
2019-02-09T15:38:29.957Z,12.26
2019-02-09T15:40:57.743Z,12.04
2019-02-09T15:43:25.557Z,11.84
2019-02-09T15:45:53.331Z,11.73
2019-02-09T15:48:22.388Z,11.44
2019-02-09T15:50:50.759Z,11.20
2019-02-09T15:53:18.787Z,11.15
2019-02-09T15:55:46.609Z,11.19
2019-02-09T15:58:14.377Z,11.11
2019-02-09T16:00:42.163Z,11.02
2019-02-09T16:03:09.922Z,10.90
2019-02-09T16:05:37.761Z,10.80
2019-02-09T16:08:06.786Z,10.74
2019-02-09T16:10:34.566Z,10.73
2019-02-09T16:13:02.399Z,10.46
2019-02-09T16:15:30.337Z,10.38
2019-02-09T16:17:58.233Z,10.29
2019-02-09T16:20:26.149Z,10.23
2019-02-09T16:22:54.252Z,10.41
2019-02-09T16:25:22.485Z,10.32
2019-02-09T16:27:50.367Z,10.35
2019-02-09T16:30:20.753Z,10.50
2019-02-09T16:32:48.657Z,10.37
2019-02-09T16:35:18.033Z,10.48
2019-02-09T16:37:46.022Z,10.26
2019-02-09T16:40:17.018Z,10.20
2019-02-09T16:42:44.975Z,10.23
2019-02-09T16:45:19.763Z,10.33
2019-02-09T16:47:47.703Z,10.23
2019-02-09T16:50:16.067Z,10.14
2019-02-09T16:52:43.892Z,10.25
2019-02-09T16:55:13.100Z,10.13
2019-02-09T16:57:40.913Z,10.10
2019-02-09T17:00:13.810Z,10.07
2019-02-09T17:02:41.605Z,10.07
2019-02-09T17:05:10.178Z,10.09
2019-02-09T17:07:38.371Z,10.09
2019-02-09T17:10:06.948Z,9.96
2019-02-09T17:12:35.880Z,9.90
2019-02-09T17:15:05.587Z,9.85
2019-02-09T17:17:33.364Z,9.77
2019-02-09T17:20:02.448Z,9.74
2019-02-09T17:22:30.187Z,9.68
2019-02-09T17:24:57.965Z,9.77
2019-02-09T17:27:26.060Z,9.74
2019-02-09T17:29:53.826Z,9.70
2019-02-09T17:32:21.591Z,9.71
2019-02-09T17:34:49.426Z,9.65
2019-02-09T17:37:17.247Z,9.55
2019-02-09T17:39:45.122Z,9.55
2019-02-09T17:42:13.082Z,9.51
2019-02-09T17:44:40.953Z,9.46
2019-02-09T17:47:08.813Z,9.33
2019-02-09T17:49:36.618Z,9.31
2019-02-09T17:52:04.522Z,9.27
2019-02-09T17:54:32.331Z,9.26
2019-02-09T17:57:00.109Z,9.17
2019-02-09T17:59:28.111Z,9.13
2019-02-09T18:01:55.882Z,8.96
2019-02-09T18:04:23.677Z,9.08
2019-02-09T18:06:51.459Z,9.07
2019-02-09T18:09:19.233Z,9.09
2019-02-09T18:11:47.106Z,8.91
2019-02-09T18:14:14.981Z,9.15
2019-02-09T18:16:42.814Z,9.08
2019-02-09T18:19:10.582Z,9.02
2019-02-09T18:21:38.397Z,8.93
2019-02-09T18:24:06.189Z,9.01
2019-02-09T18:26:33.949Z,9.02
2019-02-09T18:29:01.786Z,9.07
2019-02-09T18:31:29.688Z,9.05
2019-02-09T18:33:57.529Z,9.10
2019-02-09T18:36:25.351Z,9.02
2019-02-09T18:38:53.101Z,8.85
2019-02-09T18:41:20.903Z,8.85
2019-02-09T18:43:48.871Z,8.83
2019-02-09T18:46:16.649Z,8.73
2019-02-09T18:48:44.583Z,8.71
2019-02-09T18:51:12.445Z,8.83
2019-02-09T18:53:40.237Z,8.79
2019-02-09T18:56:08.045Z,8.72
2019-02-09T18:58:35.853Z,8.55
2019-02-09T19:01:04.524Z,8.43
2019-02-09T19:03:32.396Z,8.43
2019-02-09T19:06:00.152Z,8.48
2019-02-09T19:08:27.935Z,8.41
2019-02-09T19:10:55.798Z,8.34
2019-02-09T19:13:23.630Z,8.38
2019-02-09T19:15:51.512Z,8.54
2019-02-09T19:18:19.283Z,8.38
2019-02-09T19:20:51.854Z,8.30
2019-02-09T19:23:19.647Z,8.31
2019-02-09T19:25:50.510Z,8.22
2019-02-09T19:28:18.314Z,8.26
2019-02-09T19:30:46.232Z,8.34
2019-02-09T19:33:13.962Z,8.34
2019-02-09T19:35:41.751Z,8.35
2019-02-09T19:38:09.543Z,8.26
2019-02-09T19:40:37.306Z,8.36
2019-02-09T19:43:05.438Z,8.48
2019-02-09T19:45:33.436Z,8.66
2019-02-09T19:48:01.294Z,8.66
2019-02-09T19:50:29.209Z,8.73
2019-02-09T19:52:57.150Z,8.86
2019-02-09T19:55:27.049Z,8.67
2019-02-09T19:57:54.947Z,8.68
2019-02-09T20:00:28.633Z,8.62
2019-02-09T20:02:56.513Z,8.51
2019-02-09T20:05:24.465Z,8.41
2019-02-09T20:07:55.475Z,8.35
2019-02-09T20:10:27.533Z,8.32
2019-02-09T20:12:58.134Z,8.37
2019-02-09T20:15:26.019Z,8.40
2019-02-09T20:17:53.892Z,8.40
2019-02-09T20:20:21.853Z,8.39
2019-02-09T20:22:49.641Z,8.46
2019-02-09T20:25:19.535Z,8.61
2019-02-09T20:27:47.514Z,8.58
2019-02-09T20:30:21.403Z,8.56
2019-02-09T20:32:52.779Z,8.46
2019-02-09T20:35:27.843Z,8.29
2019-02-09T20:37:54.144Z,8.19
2019-02-09T20:40:28.300Z,8.27
2019-02-09T20:43:02.786Z,8.11
2019-02-09T20:45:26.952Z,8.03
2019-02-09T20:47:54.830Z,8.05
2019-02-09T20:50:22.908Z,7.90
2019-02-09T20:52:50.739Z,7.87
2019-02-09T20:55:19.839Z,7.89
2019-02-09T20:57:47.728Z,7.89
2019-02-09T21:00:18.533Z,7.87
2019-02-09T21:02:46.672Z,7.90
2019-02-09T21:05:15.148Z,7.92
2019-02-09T21:07:44.727Z,7.91
2019-02-09T21:10:18.668Z,7.76
2019-02-09T21:12:46.518Z,7.62
2019-02-09T21:15:15.055Z,7.49
2019-02-09T21:17:42.853Z,7.58
2019-02-09T21:20:11.227Z,7.66
2019-02-09T21:22:39.422Z,7.69
2019-02-09T21:25:11.832Z,7.68
2019-02-09T21:27:39.712Z,7.72
2019-02-09T21:30:09.001Z,7.77
2019-02-09T21:32:40.362Z,7.81
2019-02-09T21:35:07.836Z,7.75
2019-02-09T21:37:35.868Z,7.82
2019-02-09T21:40:05.738Z,7.76
2019-02-09T21:42:33.546Z,7.65
2019-02-09T21:45:01.306Z,7.68
2019-02-09T21:47:29.074Z,7.63
2019-02-09T21:49:56.925Z,7.69
2019-02-09T21:52:24.741Z,7.59
2019-02-09T21:54:52.544Z,7.64
2019-02-09T21:57:20.347Z,7.70
2019-02-09T21:59:48.137Z,7.66
2019-02-09T22:02:15.943Z,7.58
2019-02-09T22:04:43.723Z,7.58
2019-02-09T22:07:11.542Z,7.48
2019-02-09T22:09:39.330Z,7.52
2019-02-09T22:12:07.195Z,7.62
2019-02-09T22:14:35.133Z,7.54
2019-02-09T22:17:03.067Z,7.43
2019-02-09T22:19:30.842Z,7.42
2019-02-09T22:21:58.873Z,7.58
2019-02-09T22:24:26.783Z,7.44
2019-02-09T22:26:54.625Z,7.34
2019-02-09T22:29:22.510Z,7.38
2019-02-09T22:31:50.449Z,7.39
2019-02-09T22:34:18.298Z,7.40
2019-02-09T22:36:46.124Z,7.30
2019-02-09T22:39:13.962Z,7.39
2019-02-09T22:41:48.803Z,7.43
2019-02-09T22:44:11.456Z,7.44
2019-02-09T22:46:39.259Z,7.40
2019-02-09T22:49:07.074Z,7.44
2019-02-09T22:51:34.863Z,7.40
2019-02-09T22:54:02.824Z,7.36
2019-02-09T22:56:30.573Z,7.37
2019-02-09T22:58:58.319Z,7.33
2019-02-09T23:01:42.448Z,7.35
2019-02-09T23:05:04.304Z,7.35
2019-02-09T23:07:33.622Z,7.25
2019-02-09T23:10:10.063Z,7.40
2019-02-09T23:12:37.842Z,7.30
2019-02-09T23:15:06.174Z,7.26
2019-02-09T23:17:33.912Z,7.17
2019-02-09T23:20:01.701Z,7.10
2019-02-09T23:22:29.462Z,7.18
2019-02-09T23:24:57.394Z,7.22
2019-02-09T23:27:25.139Z,7.17
2019-02-09T23:29:53.046Z,7.07
2019-02-09T23:32:20.822Z,7.03
2019-02-09T23:34:48.602Z,6.97
2019-02-09T23:37:16.394Z,6.99
2019-02-09T23:39:44.173Z,7.03
2019-02-09T23:42:11.928Z,7.06
2019-02-09T23:44:39.865Z,6.90
2019-02-09T23:47:07.792Z,6.92
2019-02-09T23:49:35.663Z,7.06
2019-02-09T23:52:03.454Z,7.13
2019-02-09T23:54:31.282Z,7.17
2019-02-09T23:56:58.997Z,7.12
2019-02-09T23:59:26.807Z,7.15
